• Join FlightAware (Why Join?)
  • Login
  • US Flag 
09:25PM EDT


 

Airport Tracker/Info


-or-


 

Live Flight TrackerFlight Track Log ✈ SWA2166 ✈ 07-Feb-2014 ✈ KOAK - KSEA

Flight Track Log - Related Links

Times and Time Zones

All times are in EST time to prevent confusion due to time zone crossing. See the SWA2166 flight status page for this flight to view local times or setup timezone preferences in your user account.

Time Position Orientation Groundspeed Altitude Reporting Facility
EST Latitude Longitude Course Direction KTS MPH feet Rate Location/Type
12:05AM 37.6667 -122.1500 134° Southeast 210 242 3,400  Level Northern Cal TRACON
12:06AM 37.6058 -122.0456 126° Southeast 263 303 6,900 2,640 Climbing Oakland Center
12:08AM 37.6308 -121.9442 73° East 296 341 10,400 2,280 Climbing Oakland Center
12:09AM 37.7158 -121.9656 349° North 310 357 11,600 2,040 Climbing Oakland Center
12:10AM 37.8119 -121.9731 356° North 339 390 14,600 2,580 Climbing Oakland Center
12:11AM 37.9100 -121.9844 355° North 353 406 16,900 2,040 Climbing Oakland Center
12:12AM 38.0111 -121.9961 355° North 363 418 18,800 1,920 Climbing Oakland Center
12:13AM 38.1133 -122.0075 355° North 369 425 20,800 1,680 Climbing Oakland Center
12:14AM 38.2189 -122.0197 355° North 380 437 22,300 1,800 Climbing Oakland Center
12:15AM 38.3272 -122.0328 355° North 389 448 24,500 1,620 Climbing Oakland Center
12:16AM 38.4372 -122.0442 355° North 395 455 25,700 1,560 Climbing Oakland Center
12:17AM 38.5525 -122.0494 358° North 410 472 27,700 2,160 Climbing Oakland Center
12:18AM 38.6803 -122.0575 357° North 388 447 30,200 1,620 Climbing Oakland Center
12:19AM 38.7764 -122.0642 357° North 381 438 31,100 1,080 Climbing Oakland Center
12:20AM 38.8833 -122.0717 357° North 383 441 32,400 1,380 Climbing Oakland Center
12:21AM 38.9869 -122.0786 357° North 374 430 34,000 780 Climbing Oakland Center
12:22AM 39.0875 -122.0858 357° North 362 417 34,000  Level Oakland Center
12:23AM 39.1892 -122.0922 357° North 365 420 34,000  Level Oakland Center
12:24AM 39.2914 -122.0989 357° North 367 422 34,000  Level Oakland Center
12:25AM 39.3925 -122.1061 357° North 364 419 34,000  Level Oakland Center
12:26AM 39.5072 -122.1144 357° North 362 417 34,000  Level Oakland Center
12:27AM 39.6072 -122.1225 356° North 361 415 34,000  Level Oakland Center
12:28AM 39.7072 -122.1286 357° North 362 417 34,000  Level Oakland Center
12:29AM 39.8075 -122.1353 357° North 361 415 34,000  Level Oakland Center
12:30AM 39.9075 -122.1422 357° North 362 417 34,000  Level Oakland Center
12:31AM 40.0069 -122.1481 357° North 361 415 34,000  Level Oakland Center
12:32AM 40.1067 -122.1553 357° North 364 419 34,000  Level Oakland Center
12:33AM 40.2236 -122.1661 356° North 358 412 34,000  Level Oakland Center
12:34AM 40.3228 -122.1719 357° North 360 414 34,000  Level Oakland Center
12:35AM 40.4225 -122.1783 357° North 360 414 34,000  Level Oakland Center
12:36AM 40.5219 -122.1853 357° North 361 415 34,000  Level Oakland Center
12:37AM 40.6225 -122.1925 357° North 362 417 34,000  Level Oakland Center
12:38AM 40.7225 -122.1989 357° North 361 415 34,000  Level Oakland Center
12:39AM 40.8217 -122.2058 357° North 358 412 34,000  Level Oakland Center
12:40AM 40.9200 -122.2142 356° North 356 410 34,000  Level Oakland Center
12:41AM 41.0197 -122.2203 357° North 358 412 34,000  Level Oakland Center
12:42AM 41.1186 -122.2311 355° North 357 411 34,000  Level Oakland Center
12:43AM 41.2156 -122.2375 357° North 352 405 34,000  Level Oakland Center
12:44AM 41.3322 -122.2467 357° North 350 403 34,000  Level Oakland Center
12:45AM 41.4144 -122.2483 359° North 344 396 34,000  Level Oakland Center
12:46AM 41.5128 -122.2567 356° North 353 406 34,000  Level Oakland Center
12:47AM 41.6153 -122.2642 357° North 365 420 34,000  Level Oakland Center
12:48AM 41.7181 -122.2744 356° North 368 423 34,000  Level Oakland Center
12:49AM 41.8178 -122.2811 357° North 360 414 34,000  Level Oakland Center
12:50AM 41.9164 -122.2889 357° North 354 407 34,000  Level Oakland Center
12:51AM 42.0150 -122.2969 357° North 352 405 34,000  Level Oakland Center
12:52AM 42.1128 -122.3047 357° North 350 403 34,000  Level Oakland Center
12:53AM 42.2111 -122.3117 357° North 350 403 34,000  Level Oakland Center
12:54AM 42.3108 -122.3192 357° North 356 410 34,000  Level Oakland Center
12:56AM 42.4525 -122.3267 358° North 359 413 34,000  Level Seattle Center
12:57AM 42.5522 -122.3344 357° North 358 412 34,000  Level Seattle Center
12:58AM 42.6536 -122.3425 357° North 364 419 34,000  Level Seattle Center
12:59AM 42.7739 -122.3497 357° North 365 420 34,000  Level Seattle Center
01:00AM 42.8767 -122.3586 356° North 369 425 34,000  Level Seattle Center
01:01AM 42.9769 -122.3669 357° North 365 420 34,000  Level Seattle Center
01:02AM 43.0783 -122.3742 357° North 365 420 34,000  Level Seattle Center
01:03AM 43.1797 -122.3817 357° North 365 420 34,000  Level Seattle Center
01:04AM 43.2811 -122.3911 356° North 366 421 34,000  Level Seattle Center
01:05AM 43.3850 -122.3981 357° North 371 427 34,000  Level Seattle Center
01:06AM 43.4856 -122.4064 357° North 366 421 34,000  Level Seattle Center
01:07AM 43.5886 -122.4144 357° North 372 428 34,000  Level Seattle Center
01:08AM 43.6911 -122.4236 356° North 371 427 34,000  Level Seattle Center
01:09AM 43.7961 -122.4311 357° North 377 434 34,000  Level Seattle Center
01:10AM 43.9033 -122.4392 357° North 386 444 34,000  Level Seattle Center
01:11AM 44.0086 -122.4486 356° North 381 438 34,000  Level Seattle Center
01:12AM 44.1142 -122.4558 357° North 382 440 34,000  Level Seattle Center
01:13AM 44.2206 -122.4653 356° North 383 441 34,000  Level Seattle Center
01:14AM 44.3269 -122.4742 357° North 384 442 34,000  Level Seattle Center
01:15AM 44.4347 -122.4836 356° North 387 445 34,000  Level Seattle Center
01:16AM 44.5419 -122.4925 357° North 388 447 34,000  Level Seattle Center
01:17AM 44.6494 -122.5008 357° North 388 447 34,000  Level Seattle Center
01:18AM 44.7558 -122.5106 356° North 386 444 34,000  Level Seattle Center
01:19AM 44.8700 -122.5189 357° North 383 441 34,000  Level Seattle Center
01:20AM 44.9744 -122.5275 357° North 380 437 34,000  Level Seattle Center
01:21AM 45.0803 -122.5367 357° North 384 442 34,000  Level Seattle Center
01:22AM 45.1867 -122.5436 357° North 386 444 34,000  Level Seattle Center
01:23AM 45.2936 -122.5533 356° North 387 445 34,000  Level Seattle Center
01:24AM 45.4019 -122.5625 357° North 391 450 34,000  Level Seattle Center
01:25AM 45.5111 -122.5717 357° North 394 453 34,000  Level Seattle Center
01:26AM 45.6219 -122.5817 356° North 401 461 34,000  Level Seattle Center
01:27AM 45.7564 -122.5919 357° North 404 465 34,000 -360 Level Seattle Center
01:28AM 45.8656 -122.6131 352° North 398 458 33,300 -2,100 Descending Seattle Center
01:29AM 45.9822 -122.6081 North 418 481 29,800 -3,120 Descending Seattle Center
01:30AM 46.0992 -122.6022 North 420 483 27,100 -2,400 Descending Seattle Center
01:31AM 46.2025 -122.5989 North 406 467 25,000 -2,220 Descending Seattle Center
01:32AM 46.3089 -122.5936 North 387 445 22,700 -2,280 Descending Seattle Center
01:33AM 46.4111 -122.5903 North 371 427 20,500 -2,160 Descending Seattle Center
01:34AM 46.5100 -122.5864 North 357 411 18,400 -2,160 Descending Seattle Center
01:35AM 46.6058 -122.5839 North 341 392 16,200 -2,160 Descending Seattle Center
01:36AM 46.7033 -122.5786 North 344 396 14,100 -2,220 Descending Seattle Center
01:37AM 46.8111 -122.5767 North 341 392 11,800 -2,220 Descending Seattle Center
01:37AM 46.8675 -122.5775 359° North 335 386 10,700 -1,320 Descending Seattle Center
01:38AM 46.9006 -122.5728 North 321 369 10,500 -720 Descending Seattle Center
01:38AM 46.9114 -122.5669 20° North 305 351 10,300 -1,200 Descending Seattle Center
01:39AM 46.9642 -122.4967 42° Northeast 274 315 9,300 -1,140 Descending Seattle Center
01:39AM 46.9625 -122.4969 186° South 260 299 9,300 -1,320 Level Seattle Center
01:40AM 47.0231 -122.4331 36° Northeast 267 307 8,000 -1,380 Descending Seattle Center
01:40AM 47.0333 -122.4261 25° Northeast 261 300 7,800 -1,440 Descending Seattle Center
01:41AM 47.0872 -122.3794 31° Northeast 268 308 6,600 -1,440 Descending Seattle Center
01:41AM 47.0922 -122.3778 13° North 264 304 6,500 -1,620 Descending Seattle Center
01:42AM 47.1536 -122.3322 27° Northeast 268 308 5,000 -1,620 Descending Seattle Center
01:42AM 47.1583 -122.3319 North 268 308 4,900 -840 Descending Seattle Center
01:43AM 47.2206 -122.3111 13° North 250 288 4,200 -720 Descending Seattle Center
01:43AM 47.2250 -122.3147 331° Northwest 233 268 4,200 -420 Level Seattle Center
01:44AM 47.2742 -122.3114 North 192 221 3,800 -540 Descending Seattle Center
01:44AM 47.2758 -122.3131 326° Northwest 166 191 3,700 -900 Descending Seattle Center
01:45AM 47.3192 -122.3119 North 167 192 2,900 -900 Descending Seattle Center
01:45AM 47.3206 -122.3144 309° West 151 174 2,800 -840 Descending Seattle Center
01:46AM 47.3578 -122.3119 North 143 165 2,100 -720 Descending Seattle Center
01:46AM 47.3600 -122.3125 350° North 137 158 2,100 -720 Level Seattle Center
01:47AM 47.3936 -122.3119 North 131 151 1,400 -840 Descending Seattle Center
01:47AM 47.4003 -122.3133 352° North 124 143 1,200 -840 Descending Seattle Center
01:48AM 47.4292 -122.3117 North 120 138 600 -720 Descending Seattle Center
01:48AM 47.4333 -122.3114 North 119 137 500 -240 Descending Seattle Center
01:49AM 47.4617 -122.3139 357° North 123 142 400 -180 Descending Seattle Center
01:51AM 47.4499 -122.3118 132° Southeast  Level Estimated